createdAt,value
2019-03-22T00:01:06.589Z,102.66
2019-03-22T00:06:07.093Z,102.63
2019-03-22T00:11:06.939Z,102.61
2019-03-22T00:16:07.397Z,102.6
2019-03-22T00:21:07.172Z,102.58
2019-03-22T00:25:06.673Z,102.65
2019-03-22T00:30:08.422Z,102.97
2019-03-22T00:35:07.165Z,103.01
2019-03-22T00:40:07.045Z,103.03
2019-03-22T00:45:07.912Z,103
2019-03-22T00:50:06.885Z,103
2019-03-22T00:55:07.452Z,102.97
2019-03-22T00:59:06.640Z,102.95
2019-03-22T01:04:07.394Z,102.96
2019-03-22T01:09:07.323Z,102.95
2019-03-22T01:14:06.971Z,102.99
2019-03-22T01:19:07.213Z,102.92
2019-03-22T01:24:06.867Z,102.95
2019-03-22T01:28:07.083Z,102.91
2019-03-22T01:33:06.500Z,102.94
2019-03-22T01:38:07.155Z,102.95
2019-03-22T01:43:06.328Z,102.92
2019-03-22T01:48:06.797Z,102.93
2019-03-22T01:53:06.496Z,102.89
2019-03-22T01:58:07.077Z,102.91
2019-03-22T02:03:10.195Z,102.94
2019-03-22T02:08:07.330Z,102.97
2019-03-22T02:12:07.925Z,103.32
2019-03-22T02:17:07.419Z,103.23
2019-03-22T02:22:06.783Z,103.38
2019-03-22T02:27:07.399Z,103.42
2019-03-22T02:32:06.754Z,103.39
2019-03-22T02:37:07.414Z,103.49
2019-03-22T02:41:07.180Z,103.64
2019-03-22T02:46:06.496Z,103.7
2019-03-22T02:51:07.166Z,103.71
2019-03-22T02:56:06.821Z,103.93
2019-03-22T03:01:06.705Z,103.98
2019-03-22T03:06:07.400Z,103.97
2019-03-22T03:11:06.572Z,104.05
2019-03-22T03:16:06.699Z,104.07
2019-03-22T03:21:07.385Z,104.16
2019-03-22T03:25:06.618Z,104.23
2019-03-22T03:30:08.471Z,104.18
2019-03-22T03:31:06.785Z,104.18
2019-03-22T03:35:07.017Z,104.2
2019-03-22T03:40:06.392Z,104.22
2019-03-22T03:45:08.567Z,104.2
2019-03-22T03:50:06.685Z,104.1
2019-03-22T03:55:06.680Z,104.27
2019-03-22T04:00:08.876Z,104.36
2019-03-22T04:04:07.359Z,104.36
2019-03-22T04:09:07.045Z,104.4
2019-03-22T04:14:07.529Z,104.4
2019-03-22T04:19:07.136Z,104.45
2019-03-22T04:24:07.152Z,104.51
2019-03-22T04:29:08.062Z,104.52
2019-03-22T04:34:07.101Z,104.55
2019-03-22T04:38:06.580Z,104.55
2019-03-22T04:43:06.836Z,104.58
2019-03-22T04:48:06.361Z,104.58
2019-03-22T04:53:07.107Z,104.6
2019-03-22T04:58:06.791Z,104.61
2019-03-22T05:03:06.693Z,104.64
2019-03-22T05:08:07.058Z,104.63
2019-03-22T05:13:07.435Z,104.66
2019-03-22T05:17:06.294Z,104.65
2019-03-22T05:22:06.280Z,104.69
2019-03-22T05:27:06.455Z,104.71
2019-03-22T05:32:06.686Z,104.74
2019-03-22T05:37:06.345Z,104.77
2019-03-22T05:42:06.796Z,104.79
2019-03-22T05:47:06.259Z,104.84
2019-03-22T05:51:06.721Z,104.83
2019-03-22T05:56:06.265Z,104.88
2019-03-22T06:01:06.999Z,104.87
2019-03-22T06:06:06.595Z,104.87
2019-03-22T06:11:06.545Z,104.87
2019-03-22T06:16:06.879Z,104.89
2019-03-22T06:21:06.491Z,104.93
2019-03-22T06:25:07.032Z,105.01
2019-03-22T06:30:08.201Z,105
2019-03-22T06:35:06.858Z,105
2019-03-22T06:40:06.977Z,105.04
2019-03-22T06:45:08.186Z,105.03
2019-03-22T06:50:06.864Z,105.02
2019-03-22T06:55:06.520Z,105.01
2019-03-22T06:59:07.355Z,105.03
2019-03-22T07:04:06.185Z,105.06
2019-03-22T07:09:07.342Z,104.94
2019-03-22T07:14:07.095Z,104.71
2019-03-22T07:19:06.973Z,104.61
2019-03-22T07:24:06.725Z,104.4
2019-03-22T07:29:06.353Z,103.89
2019-03-22T07:33:06.791Z,103.08
2019-03-22T07:38:07.942Z,102.95
2019-03-22T07:43:06.934Z,102.33
2019-03-22T07:48:07.144Z,102.18
2019-03-22T07:53:06.890Z,100.92
2019-03-22T07:58:06.785Z,99.92
2019-03-22T08:03:06.428Z,98.84
2019-03-22T08:08:07.213Z,98.66
2019-03-22T08:12:07.333Z,94.25
2019-03-22T08:17:07.547Z,93.67
2019-03-22T08:22:07.205Z,93.16
2019-03-22T08:27:06.986Z,92.87
2019-03-22T08:32:07.265Z,92.15
2019-03-22T08:37:06.979Z,92.61
2019-03-22T08:42:07.223Z,91.26
2019-03-22T08:46:07.431Z,91.42
2019-03-22T08:51:07.412Z,91.71
2019-03-22T08:52:06.429Z,91.71
2019-03-22T08:56:07.250Z,91.11
2019-03-22T09:01:06.711Z,89.61
2019-03-22T09:06:07.826Z,90.19
2019-03-22T09:11:07.045Z,89.24
2019-03-22T09:16:07.199Z,88.43
2019-03-22T09:21:06.958Z,86.78
2019-03-22T09:26:06.605Z,87.19
2019-03-22T09:30:09.179Z,87.56
2019-03-22T09:35:06.755Z,86.71
2019-03-22T09:40:08.924Z,86.65
2019-03-22T09:45:07.586Z,86.3
2019-03-22T09:50:07.199Z,83.48
2019-03-22T09:55:14.434Z,85.01
2019-03-22T10:00:09.055Z,80.15
2019-03-22T10:05:06.390Z,78.93
2019-03-22T10:09:07.674Z,77.05
2019-03-22T10:14:07.416Z,79.39
2019-03-22T10:19:06.811Z,79.99
2019-03-22T10:24:07.505Z,78.33
2019-03-22T10:29:07.654Z,80.15
2019-03-22T10:34:07.161Z,78.61
2019-03-22T10:39:07.579Z,77.45
2019-03-22T10:43:06.883Z,78.49
2019-03-22T10:48:06.386Z,79.98
2019-03-22T10:53:07.102Z,78.99
2019-03-22T10:58:19.685Z,78.97
2019-03-22T11:03:07.237Z,79.01
2019-03-22T11:08:06.875Z,76.56
2019-03-22T11:13:06.817Z,74.75
2019-03-22T11:17:06.985Z,72.46
2019-03-22T11:18:06.504Z,72.46
2019-03-22T11:22:06.728Z,73.63
2019-03-22T11:27:06.242Z,73.24
2019-03-22T11:32:12.433Z,71.7
2019-03-22T11:37:07.782Z,72.95
2019-03-22T11:42:06.835Z,70.64
2019-03-22T11:47:06.880Z,71.21
2019-03-22T11:51:06.347Z,71.72
2019-03-22T11:56:06.987Z,70.05
2019-03-22T12:01:06.300Z,69.36
2019-03-22T12:06:06.905Z,68.42
2019-03-22T12:11:07.067Z,69.29
2019-03-22T12:16:07.081Z,68.45
2019-03-22T12:21:06.803Z,67.18
2019-03-22T12:26:06.600Z,68.37
2019-03-22T12:30:08.524Z,70.63
2019-03-22T12:35:06.360Z,67.76
2019-03-22T12:40:06.578Z,69.24
2019-03-22T12:45:07.361Z,69.2
2019-03-22T12:50:06.626Z,65.49
2019-03-22T12:55:06.299Z,65.7
2019-03-22T13:00:08.580Z,67.61
2019-03-22T13:04:07.130Z,68.81
2019-03-22T13:09:07.065Z,68.79
2019-03-22T13:14:06.790Z,67.6
2019-03-22T13:19:07.180Z,68.33
2019-03-22T13:24:06.897Z,67.59
2019-03-22T13:29:06.557Z,67.6
2019-03-22T13:34:06.879Z,62.67
2019-03-22T13:39:07.962Z,64.6
2019-03-22T13:43:06.155Z,64.83
2019-03-22T13:48:06.723Z,63.79
2019-03-22T13:53:07.067Z,58.46
2019-03-22T13:58:06.710Z,60.11
2019-03-22T14:03:06.532Z,59.04
2019-03-22T14:08:06.866Z,62.74
2019-03-22T14:13:07.104Z,59.68
2019-03-22T14:17:06.899Z,61.98
2019-03-22T14:22:06.961Z,60.28
2019-03-22T14:27:06.430Z,58.1
2019-03-22T14:32:08.326Z,57.28
2019-03-22T14:37:07.142Z,61.01
2019-03-22T14:42:06.995Z,58.16
2019-03-22T14:47:07.108Z,58.04
2019-03-22T14:52:07.487Z,58.59
2019-03-22T14:56:07.037Z,60.7
2019-03-22T15:01:07.132Z,61.89
2019-03-22T15:06:07.081Z,62.74
2019-03-22T15:11:06.330Z,62.21
2019-03-22T15:16:06.895Z,64.76
2019-03-22T15:21:07.047Z,62.82
2019-03-22T15:25:06.808Z,65.34
2019-03-22T15:30:08.179Z,66.83
2019-03-22T15:35:07.354Z,65.43
2019-03-22T15:40:06.409Z,64.35
2019-03-22T15:45:08.885Z,63.88
2019-03-22T15:50:06.669Z,65.24
2019-03-22T15:55:06.710Z,67.64
2019-03-22T16:00:08.398Z,69.69
2019-03-22T16:04:06.399Z,66.9
2019-03-22T16:09:07.572Z,69.47
2019-03-22T16:14:07.167Z,71.18
2019-03-22T16:19:06.656Z,71.89
2019-03-22T16:24:06.370Z,72.12
2019-03-22T16:29:07.265Z,73.51
2019-03-22T16:34:06.858Z,75.01
2019-03-22T16:38:06.636Z,76.2
2019-03-22T16:43:06.918Z,77.1
2019-03-22T16:48:06.752Z,78.38
2019-03-22T16:53:07.149Z,79.36
2019-03-22T16:58:06.946Z,79.87
2019-03-22T17:03:06.755Z,81.06
2019-03-22T17:08:06.520Z,82.34
2019-03-22T17:12:06.776Z,83.28
2019-03-22T17:17:06.998Z,84.55
2019-03-22T17:22:06.711Z,85.91
2019-03-22T17:27:06.556Z,86.81
2019-03-22T17:32:06.780Z,87.47
2019-03-22T17:37:06.711Z,87.1
2019-03-22T17:42:06.606Z,87.24
2019-03-22T17:46:06.812Z,87.62
2019-03-22T17:51:06.228Z,88
2019-03-22T17:56:06.971Z,88.3
2019-03-22T18:01:06.762Z,89.04
2019-03-22T18:06:06.376Z,89.49
2019-03-22T18:11:06.706Z,89.91
2019-03-22T18:16:06.800Z,90.46
2019-03-22T18:20:06.380Z,90.84
2019-03-22T18:25:06.897Z,91.08
2019-03-22T18:30:07.588Z,91.32
2019-03-22T18:35:07.166Z,91.64
2019-03-22T18:40:07.128Z,91.8
2019-03-22T18:45:08.741Z,92.04
2019-03-22T18:50:06.589Z,92.55
2019-03-22T18:54:07.408Z,92.59
2019-03-22T18:59:06.795Z,92.87
2019-03-22T19:04:06.653Z,93.4
2019-03-22T19:09:06.653Z,93.66
2019-03-22T19:14:06.298Z,93.93
2019-03-22T19:19:06.257Z,94.26
2019-03-22T19:24:06.921Z,94.64
2019-03-22T19:28:06.454Z,95.25
2019-03-22T19:33:07.433Z,95.45
2019-03-22T19:38:06.860Z,95.89
2019-03-22T19:43:06.362Z,95.99
2019-03-22T19:48:06.856Z,96.48
2019-03-22T19:53:06.635Z,96.56
2019-03-22T19:58:06.661Z,96.78
2019-03-22T20:02:06.225Z,96.95
2019-03-22T20:07:08.167Z,97.17
2019-03-22T20:12:06.540Z,97.03
2019-03-22T20:17:07.038Z,96.94
2019-03-22T20:22:06.467Z,96.88
2019-03-22T20:27:07.142Z,97.8
2019-03-22T20:32:06.769Z,97.78
2019-03-22T20:36:06.568Z,97.75
2019-03-22T20:41:06.935Z,98.2
2019-03-22T20:46:06.369Z,98.55
2019-03-22T20:51:07.132Z,98.43
2019-03-22T20:56:06.870Z,98.79
2019-03-22T21:01:07.589Z,99.78
2019-03-22T21:06:06.935Z,99.67
2019-03-22T21:10:06.740Z,100.44
2019-03-22T21:15:07.715Z,99.71
2019-03-22T21:20:07.036Z,99.24
2019-03-22T21:25:06.687Z,99.63
2019-03-22T21:30:07.944Z,99.59
2019-03-22T21:35:06.870Z,99.77
2019-03-22T21:40:07.249Z,100.29
2019-03-22T21:45:08.034Z,100.48
2019-03-22T21:49:06.349Z,100.26
2019-03-22T21:54:07.098Z,100.27
2019-03-22T21:59:06.897Z,100.3
2019-03-22T22:04:06.358Z,100.46
2019-03-22T22:09:07.496Z,100.94
2019-03-22T22:14:07.134Z,100.96
2019-03-22T22:19:07.116Z,101
2019-03-22T22:23:06.809Z,101.38
2019-03-22T22:28:06.545Z,101.68
2019-03-22T22:33:07.063Z,101.96
2019-03-22T22:38:06.942Z,101.79
2019-03-22T22:43:07.148Z,101.8
2019-03-22T22:48:06.946Z,102.2
2019-03-22T22:53:06.783Z,102.77
2019-03-22T22:58:06.520Z,102.68
2019-03-22T23:02:06.680Z,102.33
2019-03-22T23:07:06.242Z,102.89
2019-03-22T23:12:07.025Z,103.08
2019-03-22T23:17:07.447Z,103.1
2019-03-22T23:22:07.146Z,103.05
2019-03-22T23:27:06.777Z,102.94
2019-03-22T23:32:06.667Z,102.88
2019-03-22T23:36:06.888Z,102.81
2019-03-22T23:41:07.109Z,103.19
2019-03-22T23:46:06.539Z,103.49
2019-03-22T23:51:07.171Z,103.58
2019-03-22T23:56:06.874Z,103.72
